createdAt,value
2022-09-11T00:01:22.212Z,74.20
2022-09-11T00:03:50.581Z,73.28
2022-09-11T00:06:29.355Z,72.43
2022-09-11T00:09:00.837Z,73.83
2022-09-11T00:11:30.262Z,74.39
2022-09-11T00:13:58.484Z,73.25
2022-09-11T00:16:28.842Z,72.14
2022-09-11T00:18:58.321Z,71.36
2022-09-11T00:21:28.123Z,70.86
2022-09-11T00:23:55.787Z,70.97
2022-09-11T00:26:24.626Z,70.76
2022-09-11T00:28:52.558Z,70.93
2022-09-11T00:31:23.560Z,71.42
2022-09-11T00:33:51.597Z,70.96
2022-09-11T00:36:21.458Z,71.00
2022-09-11T00:38:51.346Z,70.78
2022-09-11T00:41:22.564Z,70.99
2022-09-11T00:44:00.145Z,71.24
2022-09-11T00:46:35.654Z,70.79
2022-09-11T00:49:14.408Z,72.38
2022-09-11T00:51:43.065Z,71.75
2022-09-11T00:54:16.196Z,71.63
2022-09-11T00:56:44.958Z,71.74
2022-09-11T00:59:13.861Z,71.96
2022-09-11T01:01:41.879Z,72.30
2022-09-11T01:04:10.244Z,72.95
2022-09-11T01:06:37.734Z,73.47
2022-09-11T01:09:05.401Z,72.64
2022-09-11T01:11:47.955Z,71.90
2022-09-11T01:14:34.273Z,72.23
2022-09-11T01:17:16.003Z,72.22
2022-09-11T01:20:06.152Z,71.86
2022-09-11T01:23:03.495Z,72.59
2022-09-11T01:25:42.523Z,72.62
2022-09-11T01:28:16.273Z,72.68
2022-09-11T01:30:47.996Z,73.16
2022-09-11T01:33:23.581Z,73.55
2022-09-11T01:35:57.467Z,73.67
2022-09-11T01:38:33.248Z,73.25
2022-09-11T01:41:07.998Z,72.68
2022-09-11T01:43:42.601Z,72.70
2022-09-11T01:46:10.327Z,73.09
2022-09-11T01:48:42.866Z,73.67
2022-09-11T01:51:16.140Z,74.62
2022-09-11T01:53:50.173Z,74.10
2022-09-11T01:56:23.682Z,74.87
2022-09-11T01:58:57.092Z,76.01
2022-09-11T02:01:29.103Z,75.98
2022-09-11T02:04:05.036Z,75.68
2022-09-11T02:06:36.220Z,74.62
2022-09-11T02:09:09.357Z,73.97
2022-09-11T02:11:41.167Z,74.30
2022-09-11T02:14:17.745Z,73.63
2022-09-11T02:16:52.430Z,74.30
2022-09-11T02:19:21.602Z,75.42
2022-09-11T02:21:50.739Z,75.42
2022-09-11T02:24:20.166Z,75.99
2022-09-11T02:26:52.539Z,76.26
2022-09-11T02:29:22.024Z,76.50
2022-09-11T02:31:50.086Z,76.63
2022-09-11T02:34:18.790Z,76.10
2022-09-11T02:37:07.541Z,75.97
2022-09-11T02:39:49.198Z,74.92
2022-09-11T02:42:31.295Z,74.64
2022-09-11T02:45:10.856Z,74.32
2022-09-11T02:47:45.985Z,73.96
2022-09-11T02:50:24.549Z,75.26
2022-09-11T02:52:59.786Z,75.70
2022-09-11T02:55:39.735Z,75.90
2022-09-11T02:58:13.018Z,75.76
2022-09-11T03:00:42.457Z,74.89
2022-09-11T03:03:10.081Z,75.01
2022-09-11T03:05:40.154Z,75.28
2022-09-11T03:08:08.117Z,73.83
2022-09-11T03:10:35.823Z,73.65
2022-09-11T03:13:03.322Z,74.21
2022-09-11T03:15:31.317Z,75.38
2022-09-11T03:18:00.155Z,74.17
2022-09-11T03:20:27.775Z,73.40
2022-09-11T03:22:55.266Z,73.00
2022-09-11T03:25:23.665Z,73.17
2022-09-11T03:27:51.476Z,73.05
2022-09-11T03:30:19.258Z,73.40
2022-09-11T03:32:46.754Z,74.61
2022-09-11T03:35:16.513Z,74.17
2022-09-11T03:37:44.279Z,74.33
2022-09-11T03:40:12.085Z,74.34
2022-09-11T03:42:39.623Z,74.92
2022-09-11T03:45:09.024Z,75.33
2022-09-11T03:47:37.249Z,75.93
2022-09-11T03:50:05.327Z,75.94
2022-09-11T03:52:34.633Z,75.15
2022-09-11T03:55:02.114Z,73.88
2022-09-11T03:57:29.641Z,74.04
2022-09-11T03:59:57.157Z,73.23
2022-09-11T04:02:24.749Z,74.42
2022-09-11T04:04:52.224Z,74.26
2022-09-11T04:07:19.908Z,73.93
2022-09-11T04:09:48.728Z,73.64
2022-09-11T04:12:16.535Z,74.86
2022-09-11T04:14:44.171Z,75.01
2022-09-11T04:17:11.681Z,74.75
2022-09-11T04:19:39.173Z,73.47
2022-09-11T04:22:06.672Z,73.75
2022-09-11T04:24:34.606Z,74.71
2022-09-11T04:27:03.495Z,74.71
2022-09-11T04:29:32.391Z,74.01
2022-09-11T04:31:59.895Z,73.56
2022-09-11T04:34:27.485Z,73.00
2022-09-11T04:36:56.259Z,73.15
2022-09-11T04:39:24.133Z,73.69
2022-09-11T04:41:51.618Z,72.91
2022-09-11T04:44:20.967Z,73.37
2022-09-11T04:46:48.720Z,73.88
2022-09-11T04:49:16.995Z,73.46
2022-09-11T04:51:45.145Z,73.35
2022-09-11T04:54:15.321Z,73.15
2022-09-11T04:56:43.028Z,72.53
2022-09-11T04:59:15.709Z,73.09
2022-09-11T05:01:46.186Z,73.15
2022-09-11T05:04:14.514Z,73.35
2022-09-11T05:06:42.602Z,73.23
2022-09-11T05:09:11.354Z,73.68
2022-09-11T05:11:39.294Z,73.05
2022-09-11T05:14:07.565Z,73.31
2022-09-11T05:16:36.384Z,73.69
2022-09-11T05:19:05.637Z,73.17
2022-09-11T05:21:34.202Z,73.32
2022-09-11T05:24:02.901Z,72.54
2022-09-11T05:26:32.444Z,72.87
2022-09-11T05:29:02.102Z,72.69
2022-09-11T05:31:30.192Z,73.11
2022-09-11T05:33:58.994Z,73.12
2022-09-11T05:36:30.882Z,73.08
2022-09-11T05:38:59.064Z,73.11
2022-09-11T05:41:27.336Z,72.90
2022-09-11T05:43:55.464Z,72.99
2022-09-11T05:46:23.272Z,72.83
2022-09-11T05:48:50.789Z,73.23
2022-09-11T05:51:21.247Z,72.94
2022-09-11T05:53:53.693Z,72.84
2022-09-11T05:56:22.851Z,72.79
2022-09-11T05:58:52.122Z,72.60
2022-09-11T06:01:21.356Z,72.75
2022-09-11T06:03:49.578Z,72.22
2022-09-11T06:06:18.444Z,73.31
2022-09-11T06:08:47.315Z,72.90
2022-09-11T06:11:18.324Z,72.07
2022-09-11T06:13:47.306Z,72.26
2022-09-11T06:16:18.547Z,72.22
2022-09-11T06:18:48.954Z,73.72
2022-09-11T06:21:19.084Z,74.05
2022-09-11T06:23:47.349Z,73.87
2022-09-11T06:26:17.727Z,74.46
2022-09-11T06:28:45.509Z,74.04
2022-09-11T06:31:16.266Z,73.52
2022-09-11T06:33:44.450Z,73.03
2022-09-11T06:36:14.145Z,71.90
2022-09-11T06:38:41.944Z,72.01
2022-09-11T06:41:12.511Z,71.34
2022-09-11T06:43:42.015Z,72.14
2022-09-11T06:46:12.405Z,71.68
2022-09-11T06:48:40.157Z,71.96
2022-09-11T06:51:09.176Z,71.74
2022-09-11T06:53:36.672Z,71.64
2022-09-11T06:56:06.775Z,71.77
2022-09-11T06:58:34.708Z,71.98
2022-09-11T07:01:05.314Z,72.37
2022-09-11T07:03:33.509Z,72.42
2022-09-11T07:06:01.582Z,72.49
2022-09-11T07:08:29.069Z,72.12
2022-09-11T07:10:56.600Z,71.87
2022-09-11T07:13:24.591Z,70.98
2022-09-11T07:16:01.079Z,70.94
2022-09-11T07:18:36.002Z,71.07
2022-09-11T07:21:05.555Z,71.60
2022-09-11T07:23:34.668Z,71.88
2022-09-11T07:26:03.985Z,72.35
2022-09-11T07:28:31.765Z,72.87
2022-09-11T07:31:11.485Z,72.16
2022-09-11T07:33:42.693Z,72.27
2022-09-11T07:36:12.146Z,72.16
2022-09-11T07:38:40.772Z,71.55
2022-09-11T07:41:08.799Z,72.00
2022-09-11T07:43:36.670Z,71.42
2022-09-11T07:46:04.690Z,71.21
2022-09-11T07:48:32.770Z,71.39
2022-09-11T07:51:04.297Z,70.75
2022-09-11T07:53:34.294Z,70.94
2022-09-11T07:56:03.735Z,70.60
2022-09-11T07:58:34.830Z,70.48
2022-09-11T08:01:03.569Z,70.68
2022-09-11T08:03:31.392Z,70.69
2022-09-11T08:06:00.943Z,70.73
2022-09-11T08:08:29.467Z,70.45
2022-09-11T08:10:57.248Z,70.85
2022-09-11T08:13:25.521Z,71.58
2022-09-11T08:15:53.039Z,71.92
2022-09-11T08:18:20.557Z,71.86
2022-09-11T08:20:48.175Z,72.43
2022-09-11T08:23:17.103Z,71.30
2022-09-11T08:25:45.360Z,71.00
2022-09-11T08:28:12.838Z,70.87
2022-09-11T08:30:40.471Z,70.18
2022-09-11T08:33:08.487Z,69.65
2022-09-11T08:35:36.396Z,69.98
2022-09-11T08:38:04.149Z,69.81
2022-09-11T08:40:38.830Z,69.78
2022-09-11T08:43:06.468Z,69.06
2022-09-11T08:45:36.350Z,68.65
2022-09-11T08:48:06.971Z,69.28
2022-09-11T08:50:39.278Z,70.12
2022-09-11T08:53:12.832Z,69.28
2022-09-11T08:55:47.616Z,68.99
2022-09-11T08:58:25.440Z,68.76
2022-09-11T09:00:57.343Z,69.95
2022-09-11T09:03:53.528Z,69.39
2022-09-11T09:06:39.936Z,68.83
2022-09-11T09:09:14.852Z,68.48
2022-09-11T09:11:48.828Z,68.35
2022-09-11T09:14:30.158Z,68.55
2022-09-11T09:17:02.653Z,69.22
2022-09-11T09:19:34.632Z,68.57
2022-09-11T09:22:10.950Z,67.98
2022-09-11T09:24:43.894Z,67.73
2022-09-11T09:27:23.382Z,66.90
2022-09-11T09:29:55.611Z,66.93
2022-09-11T09:32:30.973Z,66.25
2022-09-11T09:35:02.096Z,65.68
2022-09-11T09:37:29.843Z,66.79
2022-09-11T09:39:57.949Z,66.86
2022-09-11T09:42:55.390Z,66.13
2022-09-11T09:45:47.871Z,65.71
2022-09-11T09:48:15.718Z,65.28
2022-09-11T09:50:44.894Z,65.57
2022-09-11T09:53:20.774Z,64.96
2022-09-11T09:55:49.389Z,64.13
2022-09-11T09:58:18.719Z,64.92
2022-09-11T10:00:46.206Z,65.59
2022-09-11T10:03:21.567Z,65.18
2022-09-11T10:05:51.005Z,65.10
2022-09-11T10:08:29.117Z,64.77
2022-09-11T10:10:58.874Z,64.25
2022-09-11T10:13:29.954Z,64.62
2022-09-11T10:16:00.458Z,65.67
2022-09-11T10:18:43.790Z,65.87
2022-09-11T10:21:17.081Z,65.43
2022-09-11T10:23:50.999Z,65.42
2022-09-11T10:26:22.654Z,64.00
2022-09-11T10:28:52.769Z,64.66
2022-09-11T10:31:22.769Z,64.06
2022-09-11T10:33:55.452Z,63.73
2022-09-11T10:36:25.372Z,63.61
2022-09-11T10:38:53.234Z,63.20
2022-09-11T10:41:23.367Z,63.01
2022-09-11T10:43:58.644Z,62.64
2022-09-11T10:46:39.881Z,61.40
2022-09-11T10:49:18.452Z,61.19
2022-09-11T10:52:01.205Z,61.99
2022-09-11T10:54:54.842Z,61.25
2022-09-11T10:57:25.236Z,61.74
2022-09-11T11:00:06.923Z,62.36
2022-09-11T11:02:35.938Z,62.07
2022-09-11T11:05:09.430Z,62.45
2022-09-11T11:07:59.603Z,61.85
2022-09-11T11:10:39.505Z,62.67
2022-09-11T11:13:20.229Z,61.62
2022-09-11T11:16:04.510Z,61.75
2022-09-11T11:18:45.147Z,60.74
2022-09-11T11:21:32.326Z,60.67
2022-09-11T11:24:17.681Z,60.23
2022-09-11T11:26:58.982Z,60.68
2022-09-11T11:30:00.477Z,61.28
2022-09-11T11:32:45.045Z,60.94
2022-09-11T11:35:24.250Z,59.86
2022-09-11T11:37:56.960Z,60.75
2022-09-11T11:40:29.869Z,61.00
2022-09-11T11:43:01.512Z,61.26
2022-09-11T11:45:33.197Z,60.31
2022-09-11T11:48:09.170Z,59.82
2022-09-11T11:50:42.125Z,60.02
2022-09-11T11:53:17.986Z,60.18
2022-09-11T11:55:55.793Z,59.45
2022-09-11T11:58:35.432Z,59.57
2022-09-11T12:01:07.441Z,60.05
2022-09-11T12:03:40.642Z,58.91
2022-09-11T12:06:08.658Z,57.97
2022-09-11T12:08:43.869Z,58.88
2022-09-11T12:11:14.924Z,59.50
2022-09-11T12:13:45.474Z,58.92
2022-09-11T12:16:19.064Z,58.54
2022-09-11T12:19:07.575Z,58.55
2022-09-11T12:21:43.310Z,58.17
2022-09-11T12:24:17.595Z,57.82
2022-09-11T12:26:45.658Z,58.04
2022-09-11T12:29:54.273Z,57.98
2022-09-11T12:32:35.474Z,57.74
2022-09-11T12:35:19.862Z,57.94
2022-09-11T12:37:54.157Z,57.42
2022-09-11T12:40:28.066Z,57.94
2022-09-11T12:43:16.834Z,57.07
2022-09-11T12:45:47.633Z,57.84
2022-09-11T12:48:17.465Z,57.93
2022-09-11T12:50:56.218Z,57.41
2022-09-11T12:53:29.403Z,57.02
2022-09-11T12:56:02.111Z,57.25
2022-09-11T12:58:35.358Z,56.49
2022-09-11T13:01:08.445Z,57.73
2022-09-11T13:03:37.626Z,56.31
2022-09-11T13:06:10.118Z,56.83
2022-09-11T13:08:40.934Z,55.97
2022-09-11T13:11:43.687Z,56.27
2022-09-11T13:14:49.030Z,56.59
2022-09-11T13:17:25.646Z,55.64
2022-09-11T13:19:54.513Z,55.72
2022-09-11T13:22:26.060Z,55.00
2022-09-11T13:25:06.266Z,55.28
2022-09-11T13:27:37.432Z,55.06
2022-09-11T13:30:07.431Z,55.19
2022-09-11T13:32:36.545Z,55.58
2022-09-11T13:35:11.058Z,55.61
2022-09-11T13:37:45.405Z,55.30
2022-09-11T13:40:20.496Z,53.96
2022-09-11T13:42:49.786Z,55.40
2022-09-11T13:45:19.944Z,55.00
2022-09-11T13:47:47.799Z,54.97
2022-09-11T13:50:17.694Z,55.52
2022-09-11T13:52:47.071Z,55.73
2022-09-11T13:55:19.202Z,56.26
2022-09-11T13:57:55.312Z,55.20
2022-09-11T14:00:39.899Z,55.81
2022-09-11T14:03:18.045Z,56.14
2022-09-11T14:05:51.043Z,54.94
2022-09-11T14:08:34.217Z,54.13
2022-09-11T14:11:10.422Z,54.20
2022-09-11T14:13:45.108Z,54.00
2022-09-11T14:16:22.377Z,54.44
2022-09-11T14:18:53.501Z,54.52
2022-09-11T14:21:23.946Z,54.35
2022-09-11T14:23:54.674Z,53.66
2022-09-11T14:26:24.058Z,54.98
2022-09-11T14:29:03.525Z,54.53
2022-09-11T14:31:34.892Z,55.00
2022-09-11T14:34:17.774Z,54.72
2022-09-11T14:36:49.954Z,53.67
2022-09-11T14:39:26.597Z,54.42
2022-09-11T14:41:55.506Z,54.34
2022-09-11T14:44:25.985Z,53.88
2022-09-11T14:46:54.812Z,54.02
2022-09-11T14:49:23.093Z,52.93
2022-09-11T14:51:57.938Z,53.89
2022-09-11T14:54:30.849Z,52.80
2022-09-11T14:56:59.051Z,53.60
2022-09-11T14:59:28.868Z,53.52
2022-09-11T15:01:58.362Z,54.98
2022-09-11T15:04:25.854Z,54.83
2022-09-11T15:06:55.331Z,54.31
2022-09-11T15:09:23.127Z,54.14
2022-09-11T15:11:52.947Z,53.41
2022-09-11T15:14:44.752Z,53.17
2022-09-11T15:17:10.455Z,53.49
2022-09-11T15:19:38.318Z,53.52
2022-09-11T15:22:06.788Z,53.57
2022-09-11T15:24:34.890Z,53.19
2022-09-11T15:27:04.136Z,52.37
2022-09-11T15:29:32.017Z,53.56
2022-09-11T15:32:01.031Z,53.17
2022-09-11T15:34:31.550Z,53.29
2022-09-11T15:36:59.190Z,53.10
2022-09-11T15:39:27.819Z,51.62
2022-09-11T15:41:56.050Z,53.58
2022-09-11T15:44:26.949Z,52.74
2022-09-11T15:46:56.342Z,53.34
2022-09-11T15:49:25.080Z,51.95
2022-09-11T15:51:53.788Z,51.75
2022-09-11T15:54:23.118Z,52.61
2022-09-11T15:56:50.822Z,53.07
2022-09-11T15:59:18.783Z,53.18
2022-09-11T16:01:47.836Z,53.88
2022-09-11T16:04:19.193Z,53.89
2022-09-11T16:06:48.392Z,54.59
2022-09-11T16:09:18.514Z,54.34
2022-09-11T16:11:47.676Z,52.67
2022-09-11T16:14:18.188Z,53.45
2022-09-11T16:16:47.995Z,53.41
2022-09-11T16:19:15.935Z,53.69
2022-09-11T16:21:43.714Z,52.99
2022-09-11T16:24:14.550Z,53.60
2022-09-11T16:26:43.882Z,54.38
2022-09-11T16:29:14.653Z,53.93
2022-09-11T16:31:42.566Z,54.71
2022-09-11T16:34:11.929Z,53.55
2022-09-11T16:36:40.262Z,54.97
2022-09-11T16:39:08.945Z,54.05
2022-09-11T16:41:37.723Z,54.45
2022-09-11T16:44:06.834Z,56.12
2022-09-11T16:46:35.472Z,56.26
2022-09-11T16:49:03.098Z,57.22
2022-09-11T16:51:32.087Z,57.47
2022-09-11T16:53:59.750Z,57.94
2022-09-11T16:56:27.666Z,58.54
2022-09-11T16:58:55.621Z,59.24
2022-09-11T17:01:24.591Z,59.56
2022-09-11T17:03:54.763Z,59.94
2022-09-11T17:06:24.004Z,60.16
2022-09-11T17:08:52.871Z,59.70
2022-09-11T17:11:22.800Z,60.65
2022-09-11T17:13:50.595Z,60.31
2022-09-11T17:16:20.239Z,60.94
2022-09-11T17:18:48.569Z,61.23
2022-09-11T17:21:17.261Z,60.83
2022-09-11T17:23:45.412Z,61.41
2022-09-11T17:26:16.790Z,61.28
2022-09-11T17:28:46.209Z,61.24
2022-09-11T17:31:15.428Z,61.46
2022-09-11T17:33:45.285Z,61.79
2022-09-11T17:36:14.651Z,61.82
2022-09-11T17:38:43.029Z,62.39
2022-09-11T17:41:11.724Z,62.29
2022-09-11T17:43:40.873Z,62.48
2022-09-11T17:46:11.093Z,62.53
2022-09-11T17:48:39.867Z,62.36
2022-09-11T17:51:10.664Z,62.65
2022-09-11T17:53:39.462Z,62.32
2022-09-11T17:56:09.611Z,62.39
2022-09-11T17:58:38.210Z,63.24
2022-09-11T18:01:08.042Z,63.31
2022-09-11T18:03:36.759Z,63.78
2022-09-11T18:06:17.253Z,63.82
2022-09-11T18:08:46.141Z,63.60
2022-09-11T18:11:13.927Z,64.01
2022-09-11T18:13:42.846Z,63.83
2022-09-11T18:16:11.955Z,64.22
2022-09-11T18:18:40.382Z,64.29
2022-09-11T18:21:09.182Z,64.52
2022-09-11T18:23:40.908Z,64.17
2022-09-11T18:26:10.085Z,64.54
2022-09-11T18:28:39.786Z,64.53
2022-09-11T18:31:07.793Z,64.64
2022-09-11T18:33:36.757Z,64.64
2022-09-11T18:36:05.644Z,64.58
2022-09-11T18:38:33.337Z,64.38
2022-09-11T18:41:01.261Z,64.37
2022-09-11T18:43:29.381Z,64.79
2022-09-11T18:45:57.091Z,64.96
2022-09-11T18:48:24.638Z,64.99
2022-09-11T18:50:54.842Z,65.10
2022-09-11T18:53:22.473Z,64.92
2022-09-11T18:56:02.168Z,64.82
2022-09-11T18:58:31.089Z,64.93
2022-09-11T19:01:00.304Z,64.53
2022-09-11T19:03:30.006Z,65.05
2022-09-11T19:06:03.867Z,64.93
2022-09-11T19:08:32.094Z,64.94
2022-09-11T19:11:00.295Z,65.04
2022-09-11T19:13:28.110Z,64.94
2022-09-11T19:15:56.772Z,65.00
2022-09-11T19:18:24.423Z,64.98
2022-09-11T19:20:57.777Z,65.34
2022-09-11T19:23:26.746Z,65.44
2022-09-11T19:25:54.242Z,65.66
2022-09-11T19:28:21.775Z,65.71
2022-09-11T19:30:56.972Z,65.54
2022-09-11T19:33:24.569Z,65.19
2022-09-11T19:35:57.265Z,65.60
2022-09-11T19:38:27.028Z,65.22
2022-09-11T19:40:54.565Z,65.29
2022-09-11T19:43:23.588Z,65.43
2022-09-11T19:45:51.256Z,65.73
2022-09-11T19:48:19.182Z,65.81
2022-09-11T19:50:46.798Z,66.26
2022-09-11T19:53:14.483Z,66.57
2022-09-11T19:55:43.365Z,66.88
2022-09-11T19:58:11.101Z,68.03
2022-09-11T20:00:39.251Z,67.51
2022-09-11T20:03:06.762Z,67.57
2022-09-11T20:05:34.248Z,67.14
2022-09-11T20:08:01.740Z,67.71
2022-09-11T20:10:30.146Z,67.86
2022-09-11T20:13:00.510Z,67.86
2022-09-11T20:15:28.211Z,67.78
2022-09-11T20:17:55.929Z,67.92
2022-09-11T20:20:23.436Z,67.53
2022-09-11T20:22:50.920Z,67.36
2022-09-11T20:25:19.090Z,67.84
2022-09-11T20:27:46.583Z,67.55
2022-09-11T20:30:15.628Z,68.09
2022-09-11T20:32:43.173Z,67.51
2022-09-11T20:35:10.933Z,67.33
2022-09-11T20:37:38.438Z,67.82
2022-09-11T20:40:07.468Z,68.30
2022-09-11T20:42:35.216Z,68.18
2022-09-11T20:45:02.690Z,68.50
2022-09-11T20:47:31.576Z,68.57
2022-09-11T20:50:00.631Z,68.10
2022-09-11T20:52:28.789Z,67.64
2022-09-11T20:54:56.264Z,67.88
2022-09-11T20:57:23.807Z,67.96
2022-09-11T20:59:51.305Z,68.15
2022-09-11T21:02:19.076Z,67.93
2022-09-11T21:04:48.887Z,67.84
2022-09-11T21:07:16.513Z,67.08
2022-09-11T21:09:44.798Z,67.39
2022-09-11T21:12:12.381Z,67.38
2022-09-11T21:14:40.154Z,67.32
2022-09-11T21:17:07.675Z,67.31
2022-09-11T21:19:35.232Z,67.49
2022-09-11T21:22:04.120Z,67.17
2022-09-11T21:24:31.607Z,67.36
2022-09-11T21:26:59.293Z,66.78
2022-09-11T21:29:26.774Z,66.88
2022-09-11T21:31:54.256Z,67.45
2022-09-11T21:34:21.741Z,67.37
2022-09-11T21:36:49.242Z,67.43
2022-09-11T21:39:18.147Z,67.47
2022-09-11T21:41:45.636Z,67.70
2022-09-11T21:44:13.243Z,68.60
2022-09-11T21:46:40.789Z,69.36
2022-09-11T21:49:08.276Z,69.25
2022-09-11T21:51:35.760Z,67.66
2022-09-11T21:54:03.350Z,67.67
2022-09-11T21:56:34.264Z,67.78
2022-09-11T21:59:02.345Z,67.39
2022-09-11T22:01:31.585Z,67.32
2022-09-11T22:04:00.092Z,67.27
2022-09-11T22:06:29.013Z,67.26
2022-09-11T22:08:57.146Z,67.09
2022-09-11T22:11:25.812Z,67.64
2022-09-11T22:13:55.411Z,66.75
2022-09-11T22:16:23.290Z,67.64
2022-09-11T22:18:52.853Z,67.23
2022-09-11T22:21:20.412Z,67.24
2022-09-11T22:23:47.979Z,68.16
2022-09-11T22:26:18.193Z,67.81
2022-09-11T22:28:45.684Z,68.16
2022-09-11T22:31:16.509Z,67.52
2022-09-11T22:33:44.450Z,67.22
2022-09-11T22:36:13.816Z,67.59
2022-09-11T22:38:42.473Z,67.31
2022-09-11T22:41:10.700Z,67.88
2022-09-11T22:43:38.492Z,68.32
2022-09-11T22:46:06.958Z,68.62
2022-09-11T22:48:35.961Z,67.43
2022-09-11T22:51:05.710Z,68.06
2022-09-11T22:53:33.257Z,68.46
2022-09-11T22:56:01.056Z,68.35
2022-09-11T22:58:30.493Z,70.35
2022-09-11T23:01:00.667Z,69.92
2022-09-11T23:03:28.389Z,68.68
2022-09-11T23:06:15.764Z,68.22
2022-09-11T23:08:45.583Z,68.17
2022-09-11T23:11:15.137Z,68.23
2022-09-11T23:13:43.093Z,68.28
2022-09-11T23:16:15.427Z,67.40
2022-09-11T23:18:44.220Z,68.13
2022-09-11T23:21:13.781Z,67.75
2022-09-11T23:23:42.781Z,67.38
2022-09-11T23:26:10.942Z,67.82
2022-09-11T23:28:39.393Z,67.44
2022-09-11T23:31:12.172Z,68.66
2022-09-11T23:33:39.702Z,68.73
2022-09-11T23:36:07.779Z,68.44
2022-09-11T23:38:36.794Z,68.79
2022-09-11T23:41:04.389Z,68.41
2022-09-11T23:43:32.138Z,68.68
2022-09-11T23:45:59.674Z,67.64
2022-09-11T23:48:27.263Z,67.51
2022-09-11T23:50:54.763Z,67.30
2022-09-11T23:53:22.293Z,67.88
2022-09-11T23:55:51.876Z,67.84
2022-09-11T23:58:19.393Z,67.72
